sensor_id;sensor_type;location;lat;lon;timestamp;pressure;altitude;pressure_sealevel;temperature;humidity
80118;BME280;69424;48.770;-1.564;2023-07-31T00:00:30;101620.43;;;17.78;73.21
80118;BME280;69424;48.770;-1.564;2023-07-31T00:01:23;101619.00;;;17.78;73.00
80118;BME280;69424;48.770;-1.564;2023-07-31T00:01:56;101623.46;;;17.80;73.13
80118;BME280;69424;48.770;-1.564;2023-07-31T00:02:29;101621.67;;;17.78;73.18
80118;BME280;69424;48.770;-1.564;2023-07-31T00:03:03;101615.96;;;17.79;73.31
80118;BME280;69424;48.770;-1.564;2023-07-31T00:03:36;101614.52;;;17.80;73.28
80118;BME280;69424;48.770;-1.564;2023-07-31T00:04:11;101612.20;;;17.80;73.42
80118;BME280;69424;48.770;-1.564;2023-07-31T00:04:44;101612.38;;;17.80;73.85
80118;BME280;69424;48.770;-1.564;2023-07-31T00:05:20;101612.38;;;17.80;73.73
80118;BME280;69424;48.770;-1.564;2023-07-31T00:05:53;101612.38;;;17.80;73.84
80118;BME280;69424;48.770;-1.564;2023-07-31T00:06:26;101611.66;;;17.81;73.86
80118;BME280;69424;48.770;-1.564;2023-07-31T00:06:59;101612.73;;;17.80;73.87
80118;BME280;69424;48.770;-1.564;2023-07-31T00:07:33;101611.83;;;17.81;73.95
80118;BME280;69424;48.770;-1.564;2023-07-31T00:08:06;101613.25;;;17.81;74.08
80118;BME280;69424;48.770;-1.564;2023-07-31T00:08:39;101612.52;;;17.81;74.11
80118;BME280;69424;48.770;-1.564;2023-07-31T00:09:12;101614.69;;;17.82;74.07
80118;BME280;69424;48.770;-1.564;2023-07-31T00:09:45;101617.17;;;17.83;74.27
80118;BME280;69424;48.770;-1.564;2023-07-31T00:10:18;101613.79;;;17.82;74.31
80118;BME280;69424;48.770;-1.564;2023-07-31T00:10:52;101613.07;;;17.81;74.38
80118;BME280;69424;48.770;-1.564;2023-07-31T00:11:25;101613.61;;;17.80;74.30
80118;BME280;69424;48.770;-1.564;2023-07-31T00:11:59;101612.55;;;17.80;74.58
80118;BME280;69424;48.770;-1.564;2023-07-31T00:12:32;101610.60;;;17.80;74.43
80118;BME280;69424;48.770;-1.564;2023-07-31T00:13:05;101610.77;;;17.80;74.49
80118;BME280;69424;48.770;-1.564;2023-07-31T00:13:38;101608.61;;;17.79;74.44
80118;BME280;69424;48.770;-1.564;2023-07-31T00:14:11;101605.05;;;17.79;74.47
80118;BME280;69424;48.770;-1.564;2023-07-31T00:14:45;101603.80;;;17.79;74.47
80118;BME280;69424;48.770;-1.564;2023-07-31T00:15:18;101605.41;;;17.80;74.51
80118;BME280;69424;48.770;-1.564;2023-07-31T00:15:51;101606.83;;;17.80;74.68
80118;BME280;69424;48.770;-1.564;2023-07-31T00:16:24;101603.41;;;17.81;74.58
80118;BME280;69424;48.770;-1.564;2023-07-31T00:16:57;101606.64;;;17.80;74.62
80118;BME280;69424;48.770;-1.564;2023-07-31T00:17:30;101605.22;;;17.80;74.63
80118;BME280;69424;48.770;-1.564;2023-07-31T00:18:03;101601.27;;;17.80;74.58
80118;BME280;69424;48.770;-1.564;2023-07-31T00:18:36;101601.27;;;17.80;74.61
80118;BME280;69424;48.770;-1.564;2023-07-31T00:19:09;101602.16;;;17.81;74.45
80118;BME280;69424;48.770;-1.564;2023-07-31T00:19:43;101599.30;;;17.81;74.58
80118;BME280;69424;48.770;-1.564;2023-07-31T00:20:16;101601.80;;;17.81;74.58
80118;BME280;69424;48.770;-1.564;2023-07-31T00:20:49;101604.68;;;17.80;74.62
80118;BME280;69424;48.770;-1.564;2023-07-31T00:21:22;101604.67;;;17.80;74.52
80118;BME280;69424;48.770;-1.564;2023-07-31T00:21:55;101601.46;;;17.79;74.50
80118;BME280;69424;48.770;-1.564;2023-07-31T00:22:28;101605.05;;;17.79;74.67
80118;BME280;69424;48.770;-1.564;2023-07-31T00:23:02;101605.23;;;17.79;74.44
80118;BME280;69424;48.770;-1.564;2023-07-31T00:23:35;101603.63;;;17.78;74.49
80118;BME280;69424;48.770;-1.564;2023-07-31T00:24:07;101605.05;;;17.78;74.63
80118;BME280;69424;48.770;-1.564;2023-07-31T00:24:40;101606.30;;;17.77;74.69
80118;BME280;69424;48.770;-1.564;2023-07-31T00:25:13;101609.35;;;17.77;74.66
80118;BME280;69424;48.770;-1.564;2023-07-31T00:25:47;101606.67;;;17.76;74.66
80118;BME280;69424;48.770;-1.564;2023-07-31T00:26:20;101608.45;;;17.76;74.72
80118;BME280;69424;48.770;-1.564;2023-07-31T00:26:53;101608.11;;;17.76;74.78
80118;BME280;69424;48.770;-1.564;2023-07-31T00:27:26;101608.64;;;17.76;74.72
80118;BME280;69424;48.770;-1.564;2023-07-31T00:27:59;101604.17;;;17.75;74.80
80118;BME280;69424;48.770;-1.564;2023-07-31T00:28:32;101598.98;;;17.76;74.72
80118;BME280;69424;48.770;-1.564;2023-07-31T00:29:05;101596.11;;;17.76;74.83
80118;BME280;69424;48.770;-1.564;2023-07-31T00:29:38;101603.45;;;17.77;74.94
80118;BME280;69424;48.770;-1.564;2023-07-31T00:30:12;101600.05;;;17.77;74.85
80118;BME280;69424;48.770;-1.564;2023-07-31T00:30:45;101595.75;;;17.76;74.92
80118;BME280;69424;48.770;-1.564;2023-07-31T00:31:20;101596.11;;;17.76;74.98
80118;BME280;69424;48.770;-1.564;2023-07-31T00:31:53;101595.94;;;17.76;74.89
80118;BME280;69424;48.770;-1.564;2023-07-31T00:32:26;101588.25;;;17.76;74.83
80118;BME280;69424;48.770;-1.564;2023-07-31T00:33:00;101590.02;;;17.76;74.90
80118;BME280;69424;48.770;-1.564;2023-07-31T00:33:34;101593.96;;;17.77;74.86
80118;BME280;69424;48.770;-1.564;2023-07-31T00:34:08;101590.39;;;17.77;75.15
80118;BME280;69424;48.770;-1.564;2023-07-31T00:34:41;101587.71;;;17.77;74.94
80118;BME280;69424;48.770;-1.564;2023-07-31T00:35:14;101585.38;;;17.76;74.98
80118;BME280;69424;48.770;-1.564;2023-07-31T00:35:48;101589.49;;;17.76;74.88
80118;BME280;69424;48.770;-1.564;2023-07-31T00:36:21;101587.17;;;17.76;74.88
80118;BME280;69424;48.770;-1.564;2023-07-31T00:36:54;101585.02;;;17.76;74.91
80118;BME280;69424;48.770;-1.564;2023-07-31T00:37:27;101586.27;;;17.76;74.80
80118;BME280;69424;48.770;-1.564;2023-07-31T00:38:01;101585.91;;;17.76;74.74
80118;BME280;69424;48.770;-1.564;2023-07-31T00:38:34;101582.89;;;17.76;74.84
80118;BME280;69424;48.770;-1.564;2023-07-31T00:39:08;101579.66;;;17.76;75.10
80118;BME280;69424;48.770;-1.564;2023-07-31T00:39:41;101581.09;;;17.76;75.03
80118;BME280;69424;48.770;-1.564;2023-07-31T00:40:14;101582.34;;;17.76;75.18
80118;BME280;69424;48.770;-1.564;2023-07-31T00:40:47;101579.30;;;17.77;75.22
80118;BME280;69424;48.770;-1.564;2023-07-31T00:41:20;101579.65;;;17.77;75.20
80118;BME280;69424;48.770;-1.564;2023-07-31T00:41:54;101574.10;;;17.78;75.23
80118;BME280;69424;48.770;-1.564;2023-07-31T00:42:27;101575.16;;;17.79;75.12
80118;BME280;69424;48.770;-1.564;2023-07-31T00:43:00;101574.63;;;17.80;75.16
80118;BME280;69424;48.770;-1.564;2023-07-31T00:43:35;101576.73;;;17.81;74.98
80118;BME280;69424;48.770;-1.564;2023-07-31T00:44:10;101575.67;;;17.83;75.11
80118;BME280;69424;48.770;-1.564;2023-07-31T00:44:46;101580.33;;;17.83;74.96
80118;BME280;69424;48.770;-1.564;2023-07-31T00:45:21;101573.70;;;17.84;74.79
80118;BME280;69424;48.770;-1.564;2023-07-31T00:45:56;101574.40;;;17.84;74.85
80118;BME280;69424;48.770;-1.564;2023-07-31T00:46:30;101576.02;;;17.86;74.89
80118;BME280;69424;48.770;-1.564;2023-07-31T00:47:03;101573.69;;;17.86;74.90
80118;BME280;69424;48.770;-1.564;2023-07-31T00:47:37;101572.25;;;17.86;74.84
80118;BME280;69424;48.770;-1.564;2023-07-31T00:48:10;101569.92;;;17.87;74.80
80118;BME280;69424;48.770;-1.564;2023-07-31T00:48:45;101574.22;;;17.86;74.86
80118;BME280;69424;48.770;-1.564;2023-07-31T00:49:18;101570.63;;;17.87;74.97
80118;BME280;69424;48.770;-1.564;2023-07-31T00:49:52;101569.92;;;17.86;74.88
80118;BME280;69424;48.770;-1.564;2023-07-31T00:50:25;101570.45;;;17.86;74.85
80118;BME280;69424;48.770;-1.564;2023-07-31T00:50:59;101573.69;;;17.87;74.98
80118;BME280;69424;48.770;-1.564;2023-07-31T00:51:34;101567.26;;;17.87;75.01
80118;BME280;69424;48.770;-1.564;2023-07-31T00:52:07;101572.45;;;17.88;75.09
80118;BME280;69424;48.770;-1.564;2023-07-31T00:52:40;101575.83;;;17.90;75.02
80118;BME280;69424;48.770;-1.564;2023-07-31T00:53:13;101566.71;;;17.89;75.02
80118;BME280;69424;48.770;-1.564;2023-07-31T00:53:47;101568.48;;;17.90;74.99
80118;BME280;69424;48.770;-1.564;2023-07-31T00:54:20;101573.30;;;17.92;74.91
80118;BME280;69424;48.770;-1.564;2023-07-31T00:54:53;101568.65;;;17.92;75.00
80118;BME280;69424;48.770;-1.564;2023-07-31T00:55:26;101568.64;;;17.93;74.93
80118;BME280;69424;48.770;-1.564;2023-07-31T00:55:59;101568.98;;;17.95;74.84
80118;BME280;69424;48.770;-1.564;2023-07-31T00:56:33;101566.84;;;17.96;74.92
80118;BME280;69424;48.770;-1.564;2023-07-31T00:57:07;101567.89;;;17.98;74.93
80118;BME280;69424;48.770;-1.564;2023-07-31T00:57:41;101566.44;;;18.00;74.80
80118;BME280;69424;48.770;-1.564;2023-07-31T00:58:16;101565.89;;;18.00;74.68
80118;BME280;69424;48.770;-1.564;2023-07-31T00:58:50;101569.46;;;18.02;74.69
80118;BME280;69424;48.770;-1.564;2023-07-31T00:59:23;101570.17;;;18.03;74.64
80118;BME280;69424;48.770;-1.564;2023-07-31T00:59:56;101567.84;;;18.04;74.64
80118;BME280;69424;48.770;-1.564;2023-07-31T01:00:29;101566.05;;;18.04;74.75
80118;BME280;69424;48.770;-1.564;2023-07-31T01:01:02;101562.29;;;18.04;74.71
80118;BME280;69424;48.770;-1.564;2023-07-31T01:01:35;101561.22;;;18.04;74.82
80118;BME280;69424;48.770;-1.564;2023-07-31T01:02:09;101561.94;;;18.03;75.02
80118;BME280;69424;48.770;-1.564;2023-07-31T01:02:43;101561.05;;;18.02;74.87
80118;BME280;69424;48.770;-1.564;2023-07-31T01:03:17;101561.41;;;18.01;75.01
80118;BME280;69424;48.770;-1.564;2023-07-31T01:03:52;101565.00;;;18.02;75.19
80118;BME280;69424;48.770;-1.564;2023-07-31T01:04:28;101561.77;;;18.01;75.16
80118;BME280;69424;48.770;-1.564;2023-07-31T01:05:03;101560.88;;;18.01;75.25
80118;BME280;69424;48.770;-1.564;2023-07-31T01:07:14;101561.59;;;18.02;75.34
80118;BME280;69424;48.770;-1.564;2023-07-31T01:07:57;101558.38;;;18.01;75.26
80118;BME280;69424;48.770;-1.564;2023-07-31T01:09:44;101558.58;;;17.98;75.38
80118;BME280;69424;48.770;-1.564;2023-07-31T01:10:22;101560.21;;;17.96;75.27
80118;BME280;69424;48.770;-1.564;2023-07-31T01:11:03;101559.70;;;17.94;75.37
80118;BME280;69424;48.770;-1.564;2023-07-31T01:12:01;101559.34;;;17.93;75.54
80118;BME280;69424;48.770;-1.564;2023-07-31T01:12:34;101562.21;;;17.91;75.60
80118;BME280;69424;48.770;-1.564;2023-07-31T01:13:11;101561.50;;;17.90;75.59
80118;BME280;69424;48.770;-1.564;2023-07-31T01:13:44;101558.29;;;17.90;75.59
80118;BME280;69424;48.770;-1.564;2023-07-31T01:14:18;101557.02;;;17.90;75.74
80118;BME280;69424;48.770;-1.564;2023-07-31T01:15:12;101554.35;;;17.90;75.71
80118;BME280;69424;48.770;-1.564;2023-07-31T01:15:47;101558.46;;;17.91;75.70
80118;BME280;69424;48.770;-1.564;2023-07-31T01:16:19;101557.75;;;17.90;75.49
80118;BME280;69424;48.770;-1.564;2023-07-31T01:16:53;101557.94;;;17.90;75.62
80118;BME280;69424;48.770;-1.564;2023-07-31T01:17:26;101559.91;;;17.89;75.60
80118;BME280;69424;48.770;-1.564;2023-07-31T01:18:02;101559.36;;;17.89;75.58
80118;BME280;69424;48.770;-1.564;2023-07-31T01:18:36;101558.13;;;17.88;75.72
80118;BME280;69424;48.770;-1.564;2023-07-31T01:19:10;101560.98;;;17.88;75.74
80118;BME280;69424;48.770;-1.564;2023-07-31T01:19:45;101558.48;;;17.89;75.69
80118;BME280;69424;48.770;-1.564;2023-07-31T01:20:24;101557.77;;;17.89;75.76
80118;BME280;69424;48.770;-1.564;2023-07-31T01:21:03;101555.80;;;17.89;75.58
80118;BME280;69424;48.770;-1.564;2023-07-31T01:23:38;101550.80;;;17.89;75.59
80118;BME280;69424;48.770;-1.564;2023-07-31T01:24:23;101552.75;;;17.89;75.40
80118;BME280;69424;48.770;-1.564;2023-07-31T01:26:12;101543.46;;;17.88;75.50
80118;BME280;69424;48.770;-1.564;2023-07-31T01:27:10;101541.50;;;17.88;75.57
80118;BME280;69424;48.770;-1.564;2023-07-31T01:27:59;101542.21;;;17.88;75.67
80118;BME280;69424;48.770;-1.564;2023-07-31T01:30:21;101536.83;;;17.88;75.84
80118;BME280;69424;48.770;-1.564;2023-07-31T01:31:00;101533.79;;;17.89;75.95
80118;BME280;69424;48.770;-1.564;2023-07-31T01:31:36;101533.07;;;17.89;76.19
80118;BME280;69424;48.770;-1.564;2023-07-31T01:32:10;101531.64;;;17.89;76.38
80118;BME280;69424;48.770;-1.564;2023-07-31T01:32:47;101528.23;;;17.90;76.25
80118;BME280;69424;48.770;-1.564;2023-07-31T01:33:21;101526.80;;;17.90;76.26
80118;BME280;69424;48.770;-1.564;2023-07-31T01:33:56;101524.84;;;17.90;76.43
80118;BME280;69424;48.770;-1.564;2023-07-31T01:34:31;101528.77;;;17.90;76.54
80118;BME280;69424;48.770;-1.564;2023-07-31T01:35:05;101529.11;;;17.90;76.51
80118;BME280;69424;48.770;-1.564;2023-07-31T01:35:39;101531.25;;;17.92;76.76
80118;BME280;69424;48.770;-1.564;2023-07-31T01:36:13;101526.96;;;17.91;76.56
80118;BME280;69424;48.770;-1.564;2023-07-31T01:36:47;101530.73;;;17.91;76.46
80118;BME280;69424;48.770;-1.564;2023-07-31T01:37:28;101524.29;;;17.91;76.40
80118;BME280;69424;48.770;-1.564;2023-07-31T01:38:01;101523.92;;;17.92;76.51
80118;BME280;69424;48.770;-1.564;2023-07-31T01:38:34;101522.30;;;17.92;76.54
80118;BME280;69424;48.770;-1.564;2023-07-31T01:39:07;101523.55;;;17.92;76.56
80118;BME280;69424;48.770;-1.564;2023-07-31T01:39:40;101518.73;;;17.92;76.62
80118;BME280;69424;48.770;-1.564;2023-07-31T01:40:13;101516.77;;;17.91;76.54
80118;BME280;69424;48.770;-1.564;2023-07-31T01:40:51;101514.80;;;17.91;76.72
80118;BME280;69424;48.770;-1.564;2023-07-31T01:41:25;101510.85;;;17.91;76.57
80118;BME280;69424;48.770;-1.564;2023-07-31T01:41:58;101509.96;;;17.91;76.55
80118;BME280;69424;48.770;-1.564;2023-07-31T01:42:31;101506.73;;;17.91;76.56
80118;BME280;69424;48.770;-1.564;2023-07-31T01:43:04;101505.66;;;17.92;76.54
80118;BME280;69424;48.770;-1.564;2023-07-31T01:43:37;101508.36;;;17.92;76.51
80118;BME280;69424;48.770;-1.564;2023-07-31T01:44:10;101506.73;;;17.91;76.63
80118;BME280;69424;48.770;-1.564;2023-07-31T01:44:43;101507.83;;;17.91;76.64
80118;BME280;69424;48.770;-1.564;2023-07-31T01:45:16;101508.18;;;17.90;76.45
80118;BME280;69424;48.770;-1.564;2023-07-31T01:45:49;101509.63;;;17.90;76.41
80118;BME280;69424;48.770;-1.564;2023-07-31T01:46:23;101506.59;;;17.89;76.56
80118;BME280;69424;48.770;-1.564;2023-07-31T01:46:56;101508.92;;;17.90;76.64
80118;BME280;69424;48.770;-1.564;2023-07-31T01:47:29;101502.65;;;17.89;76.65
80118;BME280;69424;48.770;-1.564;2023-07-31T01:48:02;101507.84;;;17.90;76.48
80118;BME280;69424;48.770;-1.564;2023-07-31T01:48:35;101502.11;;;17.89;76.40
80118;BME280;69424;48.770;-1.564;2023-07-31T01:49:09;101502.11;;;17.89;76.41
80118;BME280;69424;48.770;-1.564;2023-07-31T01:49:42;101500.88;;;17.89;76.54
80118;BME280;69424;48.770;-1.564;2023-07-31T01:50:16;101501.95;;;17.89;76.45
80118;BME280;69424;48.770;-1.564;2023-07-31T01:50:49;101500.52;;;17.89;76.32
80118;BME280;69424;48.770;-1.564;2023-07-31T01:51:22;101498.72;;;17.89;76.36
80118;BME280;69424;48.770;-1.564;2023-07-31T01:51:56;101500.87;;;17.89;76.49
80118;BME280;69424;48.770;-1.564;2023-07-31T01:52:29;101501.40;;;17.88;76.36
80118;BME280;69424;48.770;-1.564;2023-07-31T01:53:03;101497.66;;;17.88;76.51
80118;BME280;69424;48.770;-1.564;2023-07-31T01:53:36;101499.27;;;17.88;76.53
80118;BME280;69424;48.770;-1.564;2023-07-31T01:54:09;101501.40;;;17.89;76.29
80118;BME280;69424;48.770;-1.564;2023-07-31T01:54:42;101502.12;;;17.89;76.39
80118;BME280;69424;48.770;-1.564;2023-07-31T01:55:15;101497.65;;;17.89;76.50
80118;BME280;69424;48.770;-1.564;2023-07-31T01:55:48;101497.45;;;17.90;76.45
80118;BME280;69424;48.770;-1.564;2023-07-31T01:56:21;101502.48;;;17.90;76.40
80118;BME280;69424;48.770;-1.564;2023-07-31T01:56:54;101500.33;;;17.90;76.36
80118;BME280;69424;48.770;-1.564;2023-07-31T01:57:28;101501.04;;;17.90;76.38
80118;BME280;69424;48.770;-1.564;2023-07-31T01:58:01;101494.95;;;17.90;76.34
80118;BME280;69424;48.770;-1.564;2023-07-31T01:58:34;101496.54;;;17.91;76.29
80118;BME280;69424;48.770;-1.564;2023-07-31T01:59:07;101495.11;;;17.91;76.17
80118;BME280;69424;48.770;-1.564;2023-07-31T01:59:40;101494.03;;;17.92;76.19
80118;BME280;69424;48.770;-1.564;2023-07-31T02:00:13;101494.39;;;17.93;76.27
80118;BME280;69424;48.770;-1.564;2023-07-31T02:00:46;101489.02;;;17.93;76.18
80118;BME280;69424;48.770;-1.564;2023-07-31T02:01:19;101487.05;;;17.93;76.24
80118;BME280;69424;48.770;-1.564;2023-07-31T02:01:55;101488.29;;;17.93;76.44
80118;BME280;69424;48.770;-1.564;2023-07-31T02:02:29;101487.39;;;17.94;76.25
80118;BME280;69424;48.770;-1.564;2023-07-31T02:03:03;101483.10;;;17.94;76.28
80118;BME280;69424;48.770;-1.564;2023-07-31T02:03:36;101478.44;;;17.94;76.25
80118;BME280;69424;48.770;-1.564;2023-07-31T02:04:10;101478.44;;;17.95;76.27
80118;BME280;69424;48.770;-1.564;2023-07-31T02:04:43;101476.48;;;17.94;76.13
80118;BME280;69424;48.770;-1.564;2023-07-31T02:05:16;101477.37;;;17.95;76.12
80118;BME280;69424;48.770;-1.564;2023-07-31T02:05:50;101477.55;;;17.94;76.10
80118;BME280;69424;48.770;-1.564;2023-07-31T02:06:23;101475.23;;;17.93;76.03
80118;BME280;69424;48.770;-1.564;2023-07-31T02:06:56;101473.45;;;17.92;76.14
80118;BME280;69424;48.770;-1.564;2023-07-31T02:07:29;101473.10;;;17.91;76.05
80118;BME280;69424;48.770;-1.564;2023-07-31T02:08:02;101472.21;;;17.90;76.13
80118;BME280;69424;48.770;-1.564;2023-07-31T02:08:38;101469.70;;;17.90;76.18
80118;BME280;69424;48.770;-1.564;2023-07-31T02:09:11;101470.96;;;17.90;76.28
80118;BME280;69424;48.770;-1.564;2023-07-31T02:09:44;101467.76;;;17.90;76.36
80118;BME280;69424;48.770;-1.564;2023-07-31T02:10:17;101466.31;;;17.90;76.36
80118;BME280;69424;48.770;-1.564;2023-07-31T02:10:51;101469.54;;;17.90;76.46
80118;BME280;69424;48.770;-1.564;2023-07-31T02:11:24;101466.50;;;17.89;76.41
80118;BME280;69424;48.770;-1.564;2023-07-31T02:11:57;101468.47;;;17.90;76.28
80118;BME280;69424;48.770;-1.564;2023-07-31T02:12:30;101466.34;;;17.89;76.35
80118;BME280;69424;48.770;-1.564;2023-07-31T02:13:04;101465.79;;;17.90;76.22
80118;BME280;69424;48.770;-1.564;2023-07-31T02:13:38;101465.25;;;17.90;76.30
80118;BME280;69424;48.770;-1.564;2023-07-31T02:14:10;101462.36;;;17.91;76.36
80118;BME280;69424;48.770;-1.564;2023-07-31T02:14:44;101459.50;;;17.91;76.44
80118;BME280;69424;48.770;-1.564;2023-07-31T02:15:17;101458.60;;;17.92;76.33
80118;BME280;69424;48.770;-1.564;2023-07-31T02:15:53;101453.05;;;17.92;76.17
80118;BME280;69424;48.770;-1.564;2023-07-31T02:16:26;101451.98;;;17.93;76.09
80118;BME280;69424;48.770;-1.564;2023-07-31T02:16:59;101451.61;;;17.93;76.08
80118;BME280;69424;48.770;-1.564;2023-07-31T02:17:34;101449.99;;;17.94;76.10
80118;BME280;69424;48.770;-1.564;2023-07-31T02:18:10;101451.08;;;17.93;76.02
80118;BME280;69424;48.770;-1.564;2023-07-31T02:18:43;101452.16;;;17.93;76.02
80118;BME280;69424;48.770;-1.564;2023-07-31T02:19:17;101450.91;;;17.92;75.97
80118;BME280;69424;48.770;-1.564;2023-07-31T02:19:50;101450.55;;;17.92;75.99
80118;BME280;69424;48.770;-1.564;2023-07-31T02:20:23;101449.12;;;17.92;75.89
80118;BME280;69424;48.770;-1.564;2023-07-31T02:20:56;101447.70;;;17.91;75.91
80118;BME280;69424;48.770;-1.564;2023-07-31T02:21:31;101445.55;;;17.91;75.90
80118;BME280;69424;48.770;-1.564;2023-07-31T02:22:04;101447.53;;;17.90;76.03
80118;BME280;69424;48.770;-1.564;2023-07-31T02:22:37;101449.67;;;17.90;76.13
80118;BME280;69424;48.770;-1.564;2023-07-31T02:23:10;101450.94;;;17.90;76.01
80118;BME280;69424;48.770;-1.564;2023-07-31T02:23:44;101449.13;;;17.90;76.07
80118;BME280;69424;48.770;-1.564;2023-07-31T02:24:17;101449.66;;;17.91;75.95
80118;BME280;69424;48.770;-1.564;2023-07-31T02:24:50;101447.16;;;17.91;75.98
80118;BME280;69424;48.770;-1.564;2023-07-31T02:25:23;101449.65;;;17.92;76.02
80118;BME280;69424;48.770;-1.564;2023-07-31T02:25:56;101447.51;;;17.92;76.09
80118;BME280;69424;48.770;-1.564;2023-07-31T02:26:29;101443.21;;;17.93;76.01
80118;BME280;69424;48.770;-1.564;2023-07-31T02:27:02;101439.79;;;17.93;75.95
80118;BME280;69424;48.770;-1.564;2023-07-31T02:27:36;101443.38;;;17.94;75.94
80118;BME280;69424;48.770;-1.564;2023-07-31T02:28:09;101440.15;;;17.96;75.88
80118;BME280;69424;48.770;-1.564;2023-07-31T02:28:42;101441.73;;;17.97;75.90
80118;BME280;69424;48.770;-1.564;2023-07-31T02:29:16;101441.91;;;17.97;76.00
80118;BME280;69424;48.770;-1.564;2023-07-31T02:29:50;101440.47;;;17.98;75.84
80118;BME280;69424;48.770;-1.564;2023-07-31T02:30:23;101438.16;;;17.98;75.85
80118;BME280;69424;48.770;-1.564;2023-07-31T02:30:56;101438.67;;;17.99;75.89
80118;BME280;69424;48.770;-1.564;2023-07-31T02:31:29;101435.84;;;17.98;75.90
80118;BME280;69424;48.770;-1.564;2023-07-31T02:32:03;101436.72;;;17.98;75.88
80118;BME280;69424;48.770;-1.564;2023-07-31T02:32:36;101436.37;;;17.98;75.96
80118;BME280;69424;48.770;-1.564;2023-07-31T02:33:10;101436.89;;;17.98;75.91
80118;BME280;69424;48.770;-1.564;2023-07-31T02:33:42;101433.66;;;17.99;75.95
80118;BME280;69424;48.770;-1.564;2023-07-31T02:34:16;101436.14;;;18.01;75.93
80118;BME280;69424;48.770;-1.564;2023-07-31T02:34:48;101433.10;;;18.01;75.83
80118;BME280;69424;48.770;-1.564;2023-07-31T02:35:22;101432.54;;;18.02;75.82
80118;BME280;69424;48.770;-1.564;2023-07-31T02:35:55;101427.71;;;18.02;75.71
80118;BME280;69424;48.770;-1.564;2023-07-31T02:36:28;101430.03;;;18.03;75.70
80118;BME280;69424;48.770;-1.564;2023-07-31T02:37:02;101430.39;;;18.03;75.58
80118;BME280;69424;48.770;-1.564;2023-07-31T02:37:35;101429.85;;;18.04;75.62
80118;BME280;69424;48.770;-1.564;2023-07-31T02:38:08;101429.31;;;18.04;75.82
80118;BME280;69424;48.770;-1.564;2023-07-31T02:38:41;101428.42;;;18.04;75.66
80118;BME280;69424;48.770;-1.564;2023-07-31T02:39:14;101424.29;;;18.05;75.69
80118;BME280;69424;48.770;-1.564;2023-07-31T02:39:47;101421.60;;;18.05;75.69
80118;BME280;69424;48.770;-1.564;2023-07-31T02:40:20;101420.34;;;18.06;75.53
80118;BME280;69424;48.770;-1.564;2023-07-31T02:40:56;101415.14;;;18.07;75.63
80118;BME280;69424;48.770;-1.564;2023-07-31T02:41:28;101416.39;;;18.08;75.56
80118;BME280;69424;48.770;-1.564;2023-07-31T02:42:02;101412.27;;;18.08;75.42
80118;BME280;69424;48.770;-1.564;2023-07-31T02:42:35;101413.34;;;18.08;75.36
80118;BME280;69424;48.770;-1.564;2023-07-31T02:43:08;101411.01;;;18.08;75.35
80118;BME280;69424;48.770;-1.564;2023-07-31T02:43:42;101414.60;;;18.08;75.33
80118;BME280;69424;48.770;-1.564;2023-07-31T02:44:15;101411.19;;;18.08;75.24
80118;BME280;69424;48.770;-1.564;2023-07-31T02:44:48;101411.55;;;18.08;75.30
80118;BME280;69424;48.770;-1.564;2023-07-31T02:45:21;101411.91;;;18.08;75.31
80118;BME280;69424;48.770;-1.564;2023-07-31T02:45:54;101412.82;;;18.07;75.27
80118;BME280;69424;48.770;-1.564;2023-07-31T02:46:29;101411.92;;;18.06;75.32
80118;BME280;69424;48.770;-1.564;2023-07-31T02:47:03;101411.59;;;18.06;75.30
80118;BME280;69424;48.770;-1.564;2023-07-31T02:47:36;101405.31;;;18.05;75.29
80118;BME280;69424;48.770;-1.564;2023-07-31T02:48:09;101403.72;;;18.04;75.19
80118;BME280;69424;48.770;-1.564;2023-07-31T02:48:42;101405.16;;;18.03;75.02
80118;BME280;69424;48.770;-1.564;2023-07-31T02:49:15;101409.46;;;18.03;75.07
80118;BME280;69424;48.770;-1.564;2023-07-31T02:49:48;101406.23;;;18.03;75.20
80118;BME280;69424;48.770;-1.564;2023-07-31T02:50:22;101410.54;;;18.03;75.26
80118;BME280;69424;48.770;-1.564;2023-07-31T02:50:55;101406.05;;;18.03;75.37
80118;BME280;69424;48.770;-1.564;2023-07-31T02:51:29;101406.23;;;18.04;75.28
80118;BME280;69424;48.770;-1.564;2023-07-31T02:52:02;101405.86;;;18.05;75.48
80118;BME280;69424;48.770;-1.564;2023-07-31T02:52:35;101408.35;;;18.06;75.38
80118;BME280;69424;48.770;-1.564;2023-07-31T02:53:08;101405.84;;;18.06;75.41
80118;BME280;69424;48.770;-1.564;2023-07-31T02:53:41;101411.04;;;18.07;75.21
80118;BME280;69424;48.770;-1.564;2023-07-31T02:54:17;101406.92;;;18.06;75.09
80118;BME280;69424;48.770;-1.564;2023-07-31T02:54:50;101407.28;;;18.06;75.07
80118;BME280;69424;48.770;-1.564;2023-07-31T02:55:23;101405.13;;;18.06;75.22
80118;BME280;69424;48.770;-1.564;2023-07-31T02:55:56;101407.09;;;18.06;75.23
80118;BME280;69424;48.770;-1.564;2023-07-31T02:56:29;101405.31;;;18.05;75.27
80118;BME280;69424;48.770;-1.564;2023-07-31T02:57:02;101406.21;;;18.06;75.33
80118;BME280;69424;48.770;-1.564;2023-07-31T02:57:35;101402.46;;;18.04;75.33
80118;BME280;69424;48.770;-1.564;2023-07-31T02:58:08;101403.54;;;18.04;75.45
80118;BME280;69424;48.770;-1.564;2023-07-31T02:58:41;101397.27;;;18.03;75.43
80118;BME280;69424;48.770;-1.564;2023-07-31T02:59:14;101399.42;;;18.03;75.41
80118;BME280;69424;48.770;-1.564;2023-07-31T02:59:47;101397.64;;;18.02;75.52
80118;BME280;69424;48.770;-1.564;2023-07-31T03:00:20;101398.39;;;18.01;75.32
80118;BME280;69424;48.770;-1.564;2023-07-31T03:00:53;101400.35;;;18.01;75.31
80118;BME280;69424;48.770;-1.564;2023-07-31T03:01:26;101398.91;;;18.01;75.42
80118;BME280;69424;48.770;-1.564;2023-07-31T03:01:59;101399.81;;;18.01;75.49
80118;BME280;69424;48.770;-1.564;2023-07-31T03:02:32;101398.55;;;18.01;75.71
80118;BME280;69424;48.770;-1.564;2023-07-31T03:03:06;101400.17;;;18.01;75.65
80118;BME280;69424;48.770;-1.564;2023-07-31T03:03:41;101401.96;;;18.00;75.48